notre code QR

Villámtérkép további részletek blitzortung!


Figyelmeztetés Hó / jég további részletek rain snow radar


További állomásunk adatai:

Template documentation
and downloads

And another site

Mobil nézet





Snow/Ice Kiadva: 19-01-2021 05:49 Érvényes: 23:59 Figyelmeztetés: Snow/Ice Szint: Sárga info button
magyar:
Gyenge ónos eső. A várt csapadékmennyiség általában néhány tized (> 0,1) mm.Gyenge hófúvás. A friss hóval fedett területeken a szél alacsony hótorlaszokat emelhet.

A tereptárgyakra rakódó jég általában csak vékony réteget képez és enyhülés hatására gyorsan el is olvadhat. Több helyen is előfordulhatnak jeges útviszonyok, de általában járhatók az utak. Az érintett területen legyünk elővigyázatosak, gyalogosan, biciklivel, autóval egyaránt. A szokásosnál hosszabb menetidőre számítsunk. Tájékozódjunk az útviszonyokról. Egyes helyeken a hófúvás miatt megváltozott útviszonyokra, fennakadásokra lehet számítani. A nagyobb problémák jellemzően inkább csak az arra érzékenyebb, szélnek kitett, hegyvidéki területekre korlátozódnak. A közutakon alkalmazkodjunk a megváltozott útviszonyokhoz és hosszabb menetidőre számítsunk. Tájékozódjunk az útviszonyokról!

english:
There might be light freezing rain. (Precipitation amount can be around 0,1-1 mm.)Drifting snow. The wind could produce shallow snowdrifts.

More widespread icy stretches on untreated roads and pavements but road networks generally open. Journeys through affected areas may take longer than usual. Check latest information about road network conditions.Blowing snow locally affects driving conditions, but road networks generally open. Care needed with only localised travel disruption. Problems mostly confined to usual prone areas. Journeys through affected areas may take longer than usual. Take extra care when driving in affected areas. Check latest information about road network conditions. 

Közeli METAR jelentések

   
LHBP - Budapest
Frissítve: 19-01-2021 21:30
Derült  
Derült  
   Szél: DDNY 7.4 km/h
Szél: DDNY 7.4 km/h
Hőmérséklet: 1°C
Szélhűtés: -1°C
Harmatpont: -2°C
Páratartalom: 81%
Légnyomás: 1016 hPa
Látótávolság: More than 10 km
Felhő fajták: Derült
LHBP 192030Z 20004KT CAVOK 01/M02 Q1016 TEMPO -FZRA SCT040 OVC090
LHKE - Kecskemét
Frissítve: 19-01-2021 21:45
Derült  
Derült  
   Szél: DDNY 11.1 km/h
Szél: DDNY 11.1 km/h
Hőmérséklet: 2°C
Szélhűtés: -1°C
Harmatpont: -2°C
Páratartalom: 75%
Légnyomás: 1017 hPa
Látótávolság: More than 10 km
Felhő fajták: Derült
LHKE 192045Z 20006KT 150V230 CAVOK 02/M02 Q1017 R12/12//95 NOSIG RMK BLU
LHPP - Pécs
Frissítve: 19-01-2021 18:15
NOT Current
Derült  
Derült  
   Szél: D 5.6 km/h
Szél: D 5.6 km/h
Hőmérséklet: 1°C
Szélhűtés: -1°C
Harmatpont: -3°C
Páratartalom: 75%
Légnyomás: 1019 hPa
Látótávolság: More than 10 km
Felhő fajták: Derült
LHPP 191715Z 19003KT CAVOK 01/M03 Q1019
LHSN - Szolnok
Frissítve: 19-01-2021 21:45
Derült  
Derült  
   Szél: D 14.8 km/h
Szél: D 14.8 km/h
Hőmérséklet: 1°C
Szélhűtés: -3°C
Harmatpont: -1°C
Páratartalom: 87%
Légnyomás: 1017 hPa
Látótávolság: More than 10 km
Felhő fajták: Derült
LHSN 192045Z 19008KT CAVOK 01/M01 Q1017 NOSIG RMK BLU
LHDC - Debrecen
Frissítve: 19-01-2021 21:15
Párásság, Közepesen felhős  
Párásság, Közepesen felhős  
   Szél: D 20.4 km/h
Szél: D 20.4 km/h
Hőmérséklet: -1°C
Szélhűtés: -7°C
Harmatpont: -2°C
Páratartalom: 93%
Légnyomás: 1018 hPa
Felhők: Közepesen felhős
Látótávolság: 5 km
Felhő fajták: Közepesen felhős
LHDC 192015Z AUTO 18011KT 5000 BR NSC M01/M02 Q1018
LHPA - Pápa
Frissítve: 19-01-2021 21:45
Derült  
Derült  
   Szél: DDNY 14.8 km/h
Szél: DDNY 14.8 km/h
Hőmérséklet: 2°C
Szélhűtés: -2°C
Harmatpont: -2°C
Páratartalom: 75%
Légnyomás: 1015 hPa
Látótávolság: More than 10 km
Felhő fajták: Derült
LHPA 192045Z 20008KT 170V240 CAVOK 02/M02 Q1015 TEMPO -RA RMK BLU

Eredeti script  Saratoga-weather.org Adapted for the template by  Weerstation Leuven

Készülékünk:

Weather-program
Meteobridge

Weather-server
My Computer

Meteobridge

My Computer